Alliance, OH (44601)

4:58 PM EDT on August 18, 2017 (GMT -0400)
Lexington Twp | | Change Station

Elev 1083 ft 40.94 °N, 81.17 °W | Updated 16 seconds ago

Partly Cloudy
Partly Cloudy
83.8 °F
Feels Like 86 °F
N
4.0
Wind Variable Wind from WSW

Today
High -- | Low -- °F
--% Chance of Precip.
Yesterday
High -- | Low -- °F
Precip. -- in
Pressure 29.81 in
Visibility 10.0 miles
Clouds Scattered Clouds 5500 ft
Scattered Clouds 25000 ft
Heat Index 86 °F
Dew Point 66 °F
Humidity 56%
Rainfall 0.00 in
Snow Depth Not available.
6:37 AM 8:18 PM
Waning Crescent, 11% visible
METAR KCAK 182051Z 25015G23KT 10SM SCT055 SCT250 29/16 A2984 RMK AO2 SLP092 T02890156 58002
Pressure 29.81 in
Visibility 10.0 miles
Clouds Scattered Clouds 5500 ft
Scattered Clouds 25000 ft
Heat Index 86 °F
Dew Point 66 °F
Humidity 56%
Rainfall 0.00 in
Snow Depth Not available.
6:37 AM 8:18 PM
Waning Crescent, 11% visible
METAR KCAK 182051Z 25015G23KT 10SM SCT055 SCT250 29/16 A2984 RMK AO2 SLP092 T02890156 58002

Get Severe Weather Alerts

Thanks for signing up!

Be on the lookout for a verification email in your inbox.

You'll start receiving the daily forecast at 6 AM.

×

10-Day Weather Forecast

Almanac

Astronomy

Aug. 18, 2017 Rise Set
Actual Time
Civil Twilight
Nautical Twilight
Astronomical Twilight
Moon
Length of Visible Light
Length of Day
Tomorrow will be .
, % of the Moon is Illuminated

Today's Extremes

State Highs State Lows

Community

WunderPhotos

Category 6

Welcome to Category 6. This is the collective home for Weather Underground's featured writeups by Dr. Jeff Masters (right), Bob Henson (left), Chris Burt, and other regular contributors.

Nearby

Air Quality

  Air Quality AQ Index Pollutant
Not available.

Snow Depth

Station Depth Elevation

Earthquake Activity

City Distance Mag. Time & Date
Minimum magnitude displayed is 2.5.

Coastal Water Temperatures

Place Temperature

Stations

Nearby Weather Stations

Station Location Temp. Windchill Dew Point Humidity Wind Precip. Elev Updated Type
                   

Watches & Warnings

There are currently no watches in effect.